Dallas, Texas
Current Conditions -  °F | °C
As of 6:53 AM on Thursday 27 Nov 2014 (Local Time) from KDAL Reporting Station
Few Clouds Few Clouds  
Wind Chill: 40°   Ceiling: Unl
Heat Index: 40°   Visibility: 10mi
Dew Point: 27°   Wind: 3mph
Humidity: 60%   Direction: 10°N
Pressure: 30.51"   Gusts: NA
Location:  32.78°N, 96.79°W
Report Text: KDAL 271253Z 01003KT 10SM FEW250 04/M03 A3051 RMK AO2 SLP332 T00441028
Loading
Personal Weather Stations






























Interactive Weather Map New forecast layout! Learn more

10-Day Weather Forecast

Advertisements
Track Severe Weather on mobile